Time;durP1;ratioP1;P1;durP2;ratioP2;P2;SDS_P1;SDS_P2;PMS_P1;PMS_P2;Temp;Humidity;BMP_temperature;BMP_pressure;BME280_temperature;BME280_humidity;BME280_pressure;Samples;Min_cycle;Max_cycle;Signal;HPM_P1;HPM_P2
2022/12/02 00:02:23;;;;;;;17.62;6.90;;;;;;;0.01;100.00;99916.56;4249080;33;20049;-71
2022/12/02 00:04:56;;;;;;;14.18;6.93;;;;;;;0.14;100.00;99922.25;4251634;33;20108;-71
2022/12/02 00:07:22;;;;;;;;;;;;;;;0.01;100.00;99911.28;4250436;33;20053;-70
2022/12/02 00:09:49;;;;;;;16.50;8.20;;;;;;;0.21;100.00;99917.97;4250678;33;19942;-70
2022/12/02 00:12:21;;;;;;;22.08;8.65;;;;;;;-0.11;100.00;99916.00;4251481;33;20038;-71
2022/12/02 00:14:57;;;;;;;17.80;8.00;;;;;;;-0.18;100.00;99881.41;4251752;33;20397;-70
2022/12/02 00:17:24;;;;;;;15.60;6.80;;;;;;;-0.18;100.00;99907.88;4250800;33;20054;-70
2022/12/02 00:19:51;;;;;;;16.40;8.50;;;;;;;-0.23;100.00;99907.53;4249737;33;20086;-69
2022/12/02 00:22:18;;;;;;;17.10;7.53;;;;;;;-0.14;100.00;99925.13;4250238;33;20080;-70
2022/12/02 00:24:44;;;;;;;15.93;9.52;;;;;;;-0.31;100.00;99888.97;4250955;33;20038;-70
2022/12/02 00:27:11;;;;;;;18.70;9.93;;;;;;;-0.21;100.00;99918.78;4251381;33;20079;-71
2022/12/02 00:29:37;;;;;;;16.02;8.00;;;;;;;-0.11;100.00;99914.22;4249894;33;20476;-70
2022/12/02 00:32:04;;;;;;;15.23;8.23;;;;;;;0.12;100.00;99913.62;4280652;33;20185;-70
2022/12/02 00:34:31;;;;;;;13.23;6.87;;;;;;;-0.13;100.00;99899.47;4281949;33;20049;-71
2022/12/02 00:36:58;;;;;;;12.05;6.90;;;;;;;-0.10;100.00;99907.09;4279265;33;20064;-70
2022/12/02 00:39:24;;;;;;;15.70;7.12;;;;;;;0.05;100.00;99918.75;4282295;33;20042;-70
2022/12/02 00:41:51;;;;;;;10.45;6.37;;;;;;;-0.06;100.00;99874.84;4281867;33;20070;-70
2022/12/02 00:47:03;;;;;;;13.75;6.35;;;;;;;0.01;100.00;99905.97;4280933;33;20083;-71
2022/12/02 00:49:30;;;;;;;12.37;6.10;;;;;;;0.03;100.00;99919.88;4281958;33;20171;-71
2022/12/02 00:51:56;;;;;;;14.45;7.22;;;;;;;0.04;100.00;99916.25;4281524;33;20041;-71
2022/12/02 00:54:23;;;;;;;12.13;6.47;;;;;;;-0.22;100.00;99870.31;4280588;33;20061;-69
2022/12/02 00:56:50;;;;;;;12.48;6.90;;;;;;;-0.15;100.00;99914.69;4280338;33;20108;-70
2022/12/02 00:59:16;;;;;;;12.23;7.40;;;;;;;-0.37;100.00;99893.91;4277214;33;20110;-70
2022/12/02 03:00:12;;;;;;;11.52;6.22;;;;;;;-0.66;100.00;99872.25;5085412;27;20052;31
2022/12/02 03:02:40;;;;;;;17.02;6.05;;;;;;;-0.59;100.00;99862.69;4247380;33;20041;-69
2022/12/02 03:05:07;;;;;;;13.73;5.93;;;;;;;-0.70;100.00;99829.41;4252166;33;20064;-68
2022/12/02 03:07:34;;;;;;;12.48;6.12;;;;;;;-0.71;100.00;99825.09;4251771;33;20403;-69
2022/12/02 03:10:02;;;;;;;16.80;6.90;;;;;;;-0.48;100.00;99870.38;4237066;33;20053;-70
2022/12/02 03:12:29;;;;;;;14.98;6.30;;;;;;;-0.46;100.00;99867.53;4207156;34;20039;-70
2022/12/02 03:14:55;;;;;;;15.85;6.68;;;;;;;-0.34;100.00;99868.94;4209426;34;20042;-71
2022/12/02 03:17:22;;;;;;;14.98;6.30;;;;;;;-0.53;100.00;99835.59;4208031;34;20057;-70
2022/12/02 03:19:48;;;;;;;12.90;6.12;;;;;;;-0.33;100.00;99862.66;4183950;34;20512;-70
2022/12/02 03:22:15;;;;;;;17.23;5.95;;;;;;;-0.42;100.00;99859.13;4156955;34;20037;-71
2022/12/02 03:24:42;;;;;;;13.85;7.53;;;;;;;-0.40;100.00;99862.47;4156861;34;20040;-70
2022/12/02 03:27:09;;;;;;;16.50;8.18;;;;;;;-0.43;100.00;99862.78;4153122;34;20098;-69
2022/12/02 03:29:36;;;;;;;15.35;7.72;;;;;;;-0.76;100.00;99865.25;4153336;34;20074;-70
2022/12/02 03:32:03;;;;;;;16.95;7.40;;;;;;;-0.82;100.00;99863.22;4155645;34;20066;-70
2022/12/02 03:34:29;;;;;;;18.17;7.65;;;;;;;-0.66;100.00;99862.47;4156250;34;20040;-70
2022/12/02 03:36:57;;;;;;;13.80;7.37;;;;;;;-1.11;100.00;99853.75;4143904;34;20058;-70
2022/12/02 03:39:24;;;;;;;12.32;6.40;;;;;;;-0.76;100.00;99857.31;4134578;34;20429;-69
2022/12/02 03:41:51;;;;;;;13.77;6.62;;;;;;;-1.31;100.00;99815.28;4142650;34;21003;-70
2022/12/02 03:44:17;;;;;;;19.50;7.45;;;;;;;-0.95;100.00;99854.88;4154109;34;20042;-70
2022/12/02 03:46:44;;;;;;;13.48;7.20;;;;;;;-1.06;100.00;99812.84;4158138;34;20062;-70
2022/12/02 03:49:11;;;;;;;13.50;6.68;;;;;;;-0.93;100.00;99845.78;4169885;34;20048;-70
2022/12/02 03:51:38;;;;;;;17.08;7.35;;;;;;;-0.83;100.00;99850.13;4190162;34;20089;-69
2022/12/02 03:54:04;;;;;;;16.75;7.10;;;;;;;-0.96;100.00;99846.13;4214684;34;20515;-70
2022/12/02 03:56:36;;;;;;;19.30;7.53;;;;;;;-0.73;100.00;99845.59;4220773;34;20051;-70
2022/12/02 03:59:03;;;;;;;20.75;6.60;;;;;;;-0.74;100.00;99844.75;4223010;34;20117;-70
2022/12/02 04:01:29;;;;;;;14.18;6.62;;;;;;;-0.91;100.00;99835.06;4234119;33;20361;-69
2022/12/02 04:03:56;;;;;;;11.60;6.28;;;;;;;-0.71;100.00;99845.44;4205755;34;20387;-69
2022/12/02 04:06:22;;;;;;;16.25;7.20;;;;;;;-0.87;100.00;99844.34;4207933;34;20393;-70
2022/12/02 04:08:49;;;;;;;16.23;8.80;;;;;;;-0.90;100.00;99842.00;4197369;34;20042;-70
2022/12/02 04:11:16;;;;;;;18.95;7.65;;;;;;;-1.01;100.00;99829.06;4196796;34;20073;-69
2022/12/02 04:13:42;;;;;;;19.58;7.65;;;;;;;-0.63;100.00;99856.06;4195285;34;20411;-69
2022/12/02 04:16:09;;;;;;;19.12;9.05;;;;;;;-1.25;100.00;99764.47;4197012;34;20450;-70
2022/12/02 04:18:35;;;;;;;14.90;7.85;;;;;;;-1.24;100.00;99821.62;4207207;34;20039;-69
2022/12/02 04:21:03;;;;;;;17.08;8.65;;;;;;;-1.18;100.00;99841.31;4202786;34;20118;-70
2022/12/02 04:23:29;;;;;;;19.20;9.13;;;;;;;-1.25;100.00;99851.66;4196676;34;20458;-68
2022/12/02 04:26:03;;;;;;;15.05;7.57;;;;;;;-1.69;100.00;99806.72;4208913;34;20070;-69
2022/12/02 04:28:29;;;;;;;15.98;8.35;;;;;;;-1.43;100.00;99849.06;4210186;34;20417;-69
2022/12/02 04:30:56;;;;;;;18.58;8.27;;;;;;;-1.46;100.00;99807.91;4210794;34;20443;-69
2022/12/02 04:33:22;;;;;;;22.02;8.90;;;;;;;-1.06;100.00;99849.84;4219221;34;20088;-68
2022/12/02 04:35:48;;;;;;;16.95;8.00;;;;;;;-1.56;100.00;99786.03;4223231;34;20485;-69
2022/12/02 04:38:15;;;;;;;18.62;8.00;;;;;;;-1.47;100.00;99806.25;4223754;34;20054;-69
2022/12/02 04:40:41;;;;;;;19.73;9.20;;;;;;;-1.10;100.00;99810.50;4224155;33;20042;-69
2022/12/02 04:43:08;;;;;;;22.92;9.27;;;;;;;-0.78;100.00;99843.41;4221241;33;20111;-69
2022/12/02 04:45:34;;;;;;;18.42;9.43;;;;;;;-1.01;100.00;99821.13;4213473;34;20075;-69
2022/12/02 04:48:01;;;;;;;18.08;8.35;;;;;;;-1.06;100.00;99841.91;4209821;34;20043;-69
2022/12/02 04:50:27;;;;;;;18.05;7.85;;;;;;;-1.36;100.00;99801.72;4221972;34;20073;-69
2022/12/02 04:52:54;;;;;;;20.25;8.98;;;;;;;-1.16;100.00;99832.25;4224471;34;20039;-70
2022/12/02 04:55:20;;;;;;;18.70;8.52;;;;;;;-1.35;100.00;99835.09;4224376;34;20407;-69
2022/12/02 04:57:46;;;;;;;18.85;8.48;;;;;;;-1.17;100.00;99842.97;4222896;34;20068;-68
2022/12/02 05:00:13;;;;;;;15.98;8.00;;;;;;;-1.63;100.00;99837.78;4214154;33;20077;-69
2022/12/02 05:02:40;;;;;;;15.50;7.50;;;;;;;-1.32;100.00;99845.34;4221101;34;20072;-69
2022/12/02 05:05:07;;;;;;;17.40;6.70;;;;;;;-1.73;100.00;99842.34;4224308;34;20042;-70
2022/12/02 05:07:33;;;;;;;16.33;7.43;;;;;;;-1.66;100.00;99832.81;4200187;34;20039;-69
2022/12/02 05:09:59;;;;;;;15.88;8.07;;;;;;;-1.58;100.00;99840.00;4158680;34;20066;-69
2022/12/02 05:12:26;;;;;;;13.02;7.25;;;;;;;-1.38;100.00;99845.94;4154791;34;20885;-69
2022/12/02 05:14:52;;;;;;;16.25;6.55;;;;;;;-1.52;100.00;99845.50;4176222;34;20052;-69
2022/12/02 05:17:19;;;;;;;17.55;7.55;;;;;;;-1.80;100.00;99835.97;4182492;34;20087;-70
2022/12/02 05:19:45;;;;;;;16.25;7.70;;;;;;;-1.74;100.00;99830.09;4182375;34;20110;-70
2022/12/02 05:22:12;;;;;;;14.25;7.47;;;;;;;-1.54;100.00;99858.03;4180699;34;20111;-69
2022/12/02 05:24:39;;;;;;;15.10;7.32;;;;;;;-1.32;100.00;99861.19;4182523;34;20073;-69
2022/12/02 05:27:05;;;;;;;14.75;6.93;;;;;;;-1.74;100.00;99851.22;4181779;34;20179;-69
2022/12/02 05:29:32;;;;;;;19.98;6.95;;;;;;;-1.74;100.00;99825.66;4182268;34;20063;-69
2022/12/02 05:31:58;;;;;;;14.15;7.22;;;;;;;-1.43;100.00;99861.44;4181738;34;20079;-68
2022/12/02 05:34:25;;;;;;;11.15;7.18;;;;;;;-1.55;100.00;99853.72;4175788;34;20074;-70
2022/12/02 05:36:51;;;;;;;13.60;6.72;;;;;;;-1.46;100.00;99855.44;4169045;34;20093;-69
2022/12/02 05:39:17;;;;;;;12.45;6.70;;;;;;;-1.28;100.00;99867.81;4186749;34;20069;-69
2022/12/02 05:41:46;;;;;;;15.55;6.78;;;;;;;-1.50;100.00;99875.25;4229035;33;20068;-69
2022/12/02 05:44:19;;;;;;;11.15;5.62;;;;;;;-1.38;100.00;99869.72;4224892;33;20072;-69
2022/12/02 05:46:45;;;;;;;11.30;6.47;;;;;;;-1.37;100.00;99829.09;4225879;34;20050;-70
2022/12/02 05:49:19;;;;;;;9.45;5.95;;;;;;;-1.13;100.00;99860.19;4226083;34;20043;-70
2022/12/02 05:51:58;;;;;;;15.02;7.93;;;;;;;-0.90;100.00;99867.62;4209748;34;20127;-70
2022/12/02 05:54:26;;;;;;;13.07;7.25;;;;;;;-1.58;100.00;99851.41;4195330;34;20072;-69
2022/12/02 05:56:54;;;;;;;17.00;8.57;;;;;;;-1.14;100.00;99869.09;4209602;34;20109;-69
2022/12/02 05:59:21;;;;;;;17.50;8.27;;;;;;;-1.21;100.00;99866.25;4209691;34;20046;-70
2022/12/02 06:01:53;;;;;;;17.30;7.75;;;;;;;-1.16;100.00;99873.72;4217344;34;20434;-70
2022/12/02 06:04:23;;;;;;;;;;;;;;;-1.25;100.00;99880.72;4222229;34;20058;-70
2022/12/02 06:06:52;;;;;;;19.35;8.57;;;;;;;-1.20;100.00;99873.16;4223245;34;20321;-70
2022/12/02 06:09:31;;;;;;;19.33;7.90;;;;;;;-1.15;100.00;99868.28;4219373;34;20222;-70
2022/12/02 06:11:59;;;;;;;19.87;9.07;;;;;;;-1.26;100.00;99839.47;4205287;34;20594;-70
2022/12/02 06:14:31;;;;;;;28.55;11.45;;;;;;;-1.24;100.00;99871.84;4208931;34;20935;-70
2022/12/02 06:17:09;;;;;;;21.75;11.05;;;;;;;-1.36;100.00;99842.16;4209456;34;20079;-70
2022/12/02 06:19:43;;;;;;;30.70;11.30;;;;;;;-1.74;100.00;99840.66;4182353;34;20077;-69
2022/12/02 06:22:25;;;;;;;20.30;9.57;;;;;;;-1.63;100.00;99877.41;4196830;34;20068;-71
2022/12/02 06:24:58;;;;;;;22.42;10.57;;;;;;;-1.61;100.00;99874.62;4209069;34;20065;-70
2022/12/02 06:27:27;;;;;;;17.87;9.65;;;;;;;-1.30;100.00;99880.38;4206999;34;20065;-70
2022/12/02 06:30:00;;;;;;;26.10;8.57;;;;;;;-1.74;100.00;99851.22;4209648;34;20055;-70
2022/12/02 06:32:37;;;;;;;15.40;7.32;;;;;;;-1.61;100.00;99875.47;4208478;34;20398;-71
2022/12/02 06:35:18;;;;;;;23.70;10.85;;;;;;;-1.62;100.00;99875.62;4206797;34;20042;-70
2022/12/02 06:37:44;;;;;;;20.02;8.95;;;;;;;-1.86;100.00;99875.19;4209171;34;20076;-70
2022/12/02 06:40:32;;;;;;;19.85;9.30;;;;;;;-1.93;100.00;99873.31;4199238;34;20051;-69
2022/12/02 06:43:13;;;;;;;22.37;9.57;;;;;;;-1.71;100.00;99883.47;4209004;34;20248;-71
2022/12/02 06:45:41;;;;;;;24.37;9.50;;;;;;;-1.78;100.00;99855.16;4186365;34;20052;-71
2022/12/02 06:48:23;;;;;;;20.02;9.63;;;;;;;-2.03;100.00;99841.69;4181846;34;20039;-71
2022/12/02 06:51:18;;;;;;;21.10;8.20;;;;;;;-1.61;100.00;99890.47;4200678;34;20060;-71
2022/12/02 06:53:46;;;;;;;19.42;9.07;;;;;;;-1.77;100.00;99891.97;4207491;34;20073;-69
2022/12/02 06:56:15;;;;;;;24.73;10.85;;;;;;;-1.52;100.00;99882.47;4211083;34;20043;-72
2022/12/02 06:59:03;;;;;;;21.35;9.30;;;;;;;-1.55;100.00;99861.63;4211014;34;20059;-71
2022/12/02 07:01:37;;;;;;;21.12;9.35;;;;;;;-1.22;100.00;99896.28;4211819;34;20078;-70
2022/12/02 07:04:22;;;;;;;20.98;10.02;;;;;;;-1.69;100.00;99885.94;4224385;34;20262;-71
2022/12/02 07:07:00;;;;;;;27.77;12.73;;;;;;;-1.65;100.00;99887.31;4221683;34;20060;-71
2022/12/02 07:09:55;;;;;;;28.17;10.85;;;;;;;-1.87;100.00;99894.69;4220697;34;20076;-70
2022/12/02 07:12:30;;;;;;;24.33;10.65;;;;;;;-1.33;100.00;99891.25;4227456;33;20070;-72
2022/12/02 07:15:01;;;;;;;30.10;12.93;;;;;;;-1.50;100.00;99884.97;4228351;33;20042;-69
2022/12/02 07:17:33;;;;;;;35.45;11.12;;;;;;;-1.44;100.00;99891.47;4229748;33;20993;-71
2022/12/02 07:20:05;;;;;;;27.23;10.93;;;;;;;-1.32;100.00;99892.91;4229686;33;20054;-71
2022/12/02 07:22:57;;;;;;;24.85;11.38;;;;;;;-1.50;100.00;99885.81;4233242;33;20368;-70
2022/12/02 07:25:36;;;;;;;33.33;10.38;;;;;;;-1.37;100.00;99895.16;4250741;33;20102;-72
2022/12/02 07:28:26;;;;;;;23.15;11.20;;;;;;;-1.58;100.00;99869.91;4239057;33;20062;-69
2022/12/02 07:31:11;;;;;;;25.95;12.63;;;;;;;-1.36;100.00;99896.81;4238032;33;20023;-71
2022/12/02 07:33:38;;;;;;;20.88;11.02;;;;;;;-1.48;100.00;99904.16;4237105;33;20038;-70
2022/12/02 07:36:05;;;;;;;24.70;12.85;;;;;;;-2.11;100.00;99854.78;4238760;33;20060;-70
2022/12/02 07:38:31;;;;;;;25.25;12.32;;;;;;;-1.99;100.00;99900.28;4229960;33;20392;-72
2022/12/02 07:40:58;;;;;;;26.62;12.95;;;;;;;-1.81;100.00;99908.25;4225350;34;20039;-71
2022/12/02 07:43:24;;;;;;;25.08;11.23;;;;;;;-2.39;100.00;99904.91;4222391;34;20038;-71
2022/12/02 07:45:50;;;;;;;26.08;11.45;;;;;;;-2.23;100.00;99905.12;4221434;34;20034;-71
2022/12/02 07:48:17;;;;;;;38.28;13.05;;;;;;;-1.95;100.00;99902.47;4223154;34;20118;-71
2022/12/02 07:50:43;;;;;;;27.95;11.48;;;;;;;-2.14;100.00;99866.47;4219047;34;20369;-71
2022/12/02 07:53:10;;;;;;;26.50;11.55;;;;;;;-1.84;100.00;99914.66;4216616;34;20074;-70
2022/12/02 07:55:36;;;;;;;24.52;10.63;;;;;;;-1.96;100.00;99879.72;4223647;34;20057;-71
2022/12/02 07:58:03;;;;;;;31.23;11.63;;;;;;;-1.87;100.00;99913.16;4222589;33;20442;-72
2022/12/02 08:00:29;;;;;;;25.05;10.18;;;;;;;-2.27;100.00;99863.34;4233313;33;20042;-71
2022/12/02 08:02:56;;;;;;;21.27;10.43;;;;;;;-2.43;100.00;99900.91;4248636;33;20060;-70
2022/12/02 08:05:23;;;;;;;18.52;7.90;;;;;;;-2.62;100.00;99889.44;4254289;33;20172;-70
2022/12/02 08:07:50;;;;;;;14.98;7.07;;;;;;;-2.24;100.00;99877.06;4250043;33;20091;-69
2022/12/02 08:10:17;;;;;;;26.10;9.52;;;;;;;-1.83;100.00;99914.50;4249189;33;20087;-70
2022/12/02 08:12:43;;;;;;;19.02;7.68;;;;;;;-1.74;100.00;99906.66;4249108;33;20112;-70
2022/12/02 08:15:11;;;;;;;18.85;9.30;;;;;;;-1.71;100.00;99904.59;4246273;33;20076;-70
2022/12/02 08:17:39;;;;;;;20.08;9.52;;;;;;;-1.96;100.00;99877.09;4241978;33;20068;-71
2022/12/02 08:20:07;;;;;;;22.90;9.43;;;;;;;-2.21;100.00;99876.78;4246011;33;20093;-69
2022/12/02 08:22:34;;;;;;;27.10;9.70;;;;;;;-1.86;100.00;99891.03;4237664;33;20050;-70
2022/12/02 08:25:01;;;;;;;22.42;9.02;;;;;;;-1.75;100.00;99891.84;4236636;33;20088;-70
2022/12/02 08:27:27;;;;;;;34.10;13.82;;;;;;;-1.66;100.00;99891.75;4238714;33;20039;-70
2022/12/02 08:29:54;;;;;;;25.77;10.18;;;;;;;-2.01;100.00;99892.50;4237830;33;20149;-67
2022/12/02 08:32:21;;;;;;;24.10;10.00;;;;;;;-2.02;100.00;99885.59;4238524;33;20174;-70
2022/12/02 08:34:47;;;;;;;24.60;9.90;;;;;;;-2.09;100.00;99895.06;4238831;33;20042;-68
2022/12/02 08:37:14;;;;;;;27.35;10.45;;;;;;;-2.31;100.00;99860.19;4238759;33;20419;-68
2022/12/02 08:39:41;;;;;;;22.42;9.98;;;;;;;-2.31;100.00;99891.84;4238849;33;20038;-69
2022/12/02 08:42:08;;;;;;;24.80;9.30;;;;;;;-2.34;100.00;99865.75;4235164;33;20034;-68
2022/12/02 08:44:34;;;;;;;23.98;10.38;;;;;;;-2.12;100.00;99895.34;4238688;33;20042;-70
2022/12/02 08:47:01;;;;;;;21.45;9.77;;;;;;;-2.03;100.00;99895.31;4238735;33;20039;-70
2022/12/02 08:49:27;;;;;;;25.02;9.35;;;;;;;-1.93;100.00;99900.56;4238694;33;20383;-70
2022/12/02 08:51:54;;;;;;;26.73;10.32;;;;;;;-2.32;100.00;99905.16;4244168;33;20052;-70
2022/12/02 08:54:20;;;;;;;24.10;10.43;;;;;;;-2.39;100.00;99889.09;4251642;33;20076;-69
2022/12/02 08:56:48;;;;;;;22.83;10.48;;;;;;;-1.95;100.00;99896.38;4238304;33;20702;-70
2022/12/02 08:59:16;;;;;;;23.50;9.60;;;;;;;-1.78;100.00;99897.41;4238762;33;20052;-69
2022/12/02 09:01:42;;;;;;;23.73;10.77;;;;;;;-1.78;100.00;99871.00;4237100;33;20034;-69
2022/12/02 09:04:08;;;;;;;25.35;10.85;;;;;;;-2.08;100.00;99859.78;4237349;33;20022;-68
2022/12/02 09:06:35;;;;;;;23.20;9.05;;;;;;;-1.74;100.00;99888.19;4237461;33;20034;-69
2022/12/02 09:09:03;;;;;;;20.48;10.00;;;;;;;-1.63;100.00;99885.34;4225318;33;20038;-70
2022/12/02 09:11:30;;;;;;;17.25;8.60;;;;;;;-2.38;100.00;99851.16;4196191;34;20106;-69
2022/12/02 09:13:56;;;;;;;15.32;7.37;;;;;;;-2.23;100.00;99899.84;4196448;34;20027;-69
2022/12/02 09:16:23;;;;;;;21.10;8.35;;;;;;;-2.33;100.00;99893.78;4206993;34;20434;-68
2022/12/02 09:18:50;;;;;;;19.35;9.48;;;;;;;-1.92;100.00;99904.81;4192932;34;20095;-70
2022/12/02 09:21:16;;;;;;;15.13;7.47;;;;;;;-1.76;100.00;99892.81;4195014;34;20035;-69
2022/12/02 09:23:43;;;;;;;18.52;9.85;;;;;;;-2.15;100.00;99903.56;4194164;34;20047;-69
2022/12/02 09:26:09;;;;;;;22.23;10.70;;;;;;;-2.17;100.00;99860.66;4194231;34;20105;-69
2022/12/02 09:28:35;;;;;;;23.60;9.93;;;;;;;-1.94;100.00;99904.16;4216258;34;20507;-69
2022/12/02 09:31:02;;;;;;;22.27;9.55;;;;;;;-1.81;100.00;99892.41;4223476;34;20061;-69
2022/12/02 09:33:28;;;;;;;24.87;10.38;;;;;;;-1.83;100.00;99890.75;4223177;34;20028;-69
2022/12/02 09:35:55;;;;;;;23.55;10.45;;;;;;;-1.75;100.00;99897.09;4209827;34;20470;-69
2022/12/02 09:38:21;;;;;;;22.77;9.77;;;;;;;-1.78;100.00;99881.56;4221915;34;20042;-68
2022/12/02 09:40:48;;;;;;;21.60;9.13;;;;;;;-2.03;100.00;99883.91;4211150;34;20035;-69
2022/12/02 09:43:21;;;;;;;18.58;9.90;;;;;;;-1.80;100.00;99899.34;4210267;34;20027;-69
2022/12/02 09:45:48;;;;;;;22.73;10.45;;;;;;;-1.91;100.00;99898.59;4208750;34;20036;-69
2022/12/02 09:48:14;;;;;;;24.52;10.00;;;;;;;-1.77;100.00;99899.91;4209650;34;20034;-69
2022/12/02 09:50:40;;;;;;;24.80;11.52;;;;;;;-1.75;100.00;99887.37;4192978;34;20131;-69
2022/12/02 09:53:12;;;;;;;19.75;9.60;;;;;;;-1.81;100.00;99892.41;4195002;34;20380;-69
2022/12/02 09:55:39;;;;;;;27.33;10.52;;;;;;;-1.65;100.00;99887.31;4194676;34;20083;-70
2022/12/02 09:58:25;;;;;;;26.27;9.20;;;;;;;-1.55;100.00;99887.22;4194546;34;20028;-69
2022/12/02 10:00:53;;;;;;;24.20;9.95;;;;;;;-1.49;100.00;99891.91;4193225;34;20088;-69
2022/12/02 10:03:26;;;;;;;18.92;9.68;;;;;;;-1.90;100.00;99842.19;4193520;34;20075;-69
2022/12/02 10:05:54;;;;;;;23.15;9.88;;;;;;;-1.48;100.00;99888.31;4193088;34;20162;-69
2022/12/02 10:08:24;;;;;;;21.25;10.38;;;;;;;-1.83;100.00;99879.37;4192658;34;20050;-69
2022/12/02 10:10:53;;;;;;;21.02;9.73;;;;;;;-1.75;100.00;99886.56;4195147;34;20047;-68
2022/12/02 10:13:21;;;;;;;19.33;9.05;;;;;;;-1.53;100.00;99883.47;4216183;34;20073;-68
2022/12/02 10:15:47;;;;;;;28.60;10.88;;;;;;;-1.89;100.00;99858.84;4216912;34;20090;-68
2022/12/02 10:18:20;;;;;;;24.55;11.10;;;;;;;-1.81;100.00;99887.13;4221027;34;20031;-68
2022/12/02 10:20:49;;;;;;;19.40;9.20;;;;;;;-1.67;100.00;99839.91;4221609;33;20068;-69
2022/12/02 10:23:24;;;;;;;19.90;9.57;;;;;;;-1.51;100.00;99873.56;4252578;33;20099;-70
2022/12/02 10:26:12;;;;;;;27.45;10.10;;;;;;;-1.49;100.00;99876.88;4253696;33;20743;-69
2022/12/02 10:28:41;;;;;;;23.12;10.38;;;;;;;-1.67;100.00;99849.66;4220384;34;20112;-69
2022/12/02 10:31:13;;;;;;;25.00;10.07;;;;;;;-1.96;100.00;99869.16;4218492;34;20063;-69
2022/12/02 10:34:05;;;;;;;27.67;12.00;;;;;;;-1.75;100.00;99870.72;4219051;34;20416;-68
2022/12/02 10:36:39;;;;;;;35.58;11.48;;;;;;;-1.55;100.00;99877.47;4217747;34;20083;-69
2022/12/02 10:39:29;;;;;;;22.45;8.88;;;;;;;-1.53;100.00;99875.53;4218777;34;20047;-70
2022/12/02 10:42:02;;;;;;;25.62;9.82;;;;;;;-1.51;100.00;99878.03;4175830;34;20052;-68
2022/12/02 10:44:31;;;;;;;28.70;11.98;;;;;;;-1.67;100.00;99842.56;4176382;34;20076;-70
2022/12/02 10:47:18;;;;;;;11.48;7.03;;;;;;;-1.77;100.00;99851.53;4176069;34;20185;-69
2022/12/02 10:49:52;;;;;;;19.95;9.95;;;;;;;-1.49;100.00;99876.88;4181172;34;20066;-69
2022/12/02 10:52:43;;;;;;;19.73;9.40;;;;;;;-1.53;100.00;99843.00;4183800;34;20075;-69
2022/12/02 10:55:16;;;;;;;21.80;9.07;;;;;;;-1.37;100.00;99881.94;4183870;34;20288;-69
2022/12/02 10:57:44;;;;;;;25.02;9.82;;;;;;;-1.46;100.00;99875.75;4183342;34;20051;-68
2022/12/02 11:00:25;;;;;;;24.50;10.90;;;;;;;-1.49;100.00;99874.25;4199541;34;20055;-70
2022/12/02 11:02:53;;;;;;;27.33;10.32;;;;;;;-1.27;100.00;99866.84;4210813;34;20329;-69
2022/12/02 11:05:21;;;;;;;25.17;9.55;;;;;;;-1.60;100.00;99869.19;4211062;34;20047;-69
2022/12/02 11:07:56;;;;;;;25.20;10.95;;;;;;;-1.52;100.00;99866.63;4201336;34;20536;-69
2022/12/02 11:10:27;;;;;;;24.92;10.43;;;;;;;-1.57;100.00;99870.72;4195836;34;20040;-68
2022/12/02 11:12:53;;;;;;;19.45;9.68;;;;;;;-1.79;100.00;99859.59;4203404;34;20143;-68
2022/12/02 11:15:42;;;;;;;19.55;10.15;;;;;;;-1.77;100.00;99830.41;4211218;34;20092;-68
2022/12/02 11:18:24;;;;;;;22.55;9.13;;;;;;;-1.62;100.00;99872.97;4195512;34;20113;-68
2022/12/02 11:21:14;;;;;;;32.33;8.60;;;;;;;-1.56;100.00;99828.31;4196125;34;20354;-68
2022/12/02 11:23:41;;;;;;;20.50;9.32;;;;;;;-1.19;100.00;99866.91;4196990;34;20055;-68
2022/12/02 11:26:14;;;;;;;23.27;10.13;;;;;;;-1.31;100.00;99868.12;4197591;34;20052;-69
2022/12/02 11:28:45;;;;;;;22.98;10.02;;;;;;;-1.29;100.00;99860.91;4197757;34;20040;-68
2022/12/02 11:31:37;;;;;;;24.92;9.07;;;;;;;-1.33;100.00;99864.81;4195196;34;20068;-69
2022/12/02 11:34:23;;;;;;;36.17;10.05;;;;;;;-1.23;100.00;99862.91;4195711;34;20055;-69
2022/12/02 11:37:24;;;;;;;21.58;9.73;;;;;;;-1.48;100.00;99825.72;4209802;34;20079;-69
2022/12/02 11:40:04;;;;;;;23.40;9.55;;;;;;;-1.51;100.00;99863.00;4205876;34;20055;-69
2022/12/02 11:42:33;;;;;;;21.23;9.45;;;;;;;-1.69;100.00;99870.09;4209172;34;20036;-69
2022/12/02 11:45:14;;;;;;;21.02;9.35;;;;;;;-1.74;100.00;99824.81;4210244;34;20128;-68
2022/12/02 11:47:52;;;;;;;25.37;10.10;;;;;;;-1.20;100.00;99857.31;4206024;34;20415;-69
2022/12/02 11:50:25;;;;;;;29.30;11.38;;;;;;;-1.03;100.00;99853.00;4233305;33;20019;-69
2022/12/02 11:52:55;;;;;;;28.50;12.55;;;;;;;-1.11;100.00;99859.03;4238342;33;20053;-69
2022/12/02 11:55:35;;;;;;;24.58;12.35;;;;;;;-1.39;100.00;99849.56;4234723;33;20079;-69
2022/12/02 11:58:03;;;;;;;23.83;11.45;;;;;;;-1.30;100.00;99849.47;4237860;33;20034;-69
2022/12/02 12:03:20;;;;;;;27.77;11.32;;;;;;;-1.13;100.00;99853.09;4221354;34;20361;-69
2022/12/02 12:06:08;;;;;;;36.75;12.85;;;;;;;-1.83;100.00;99800.16;4224094;33;20050;-68
2022/12/02 12:08:37;;;;;;;24.90;10.10;;;;;;;-1.28;100.00;99841.41;4216125;34;20061;-69
2022/12/02 12:11:22;;;;;;;38.50;13.40;;;;;;;-1.24;100.00;99832.19;4209740;34;20055;-68
2022/12/02 12:14:03;;;;;;;25.70;12.70;;;;;;;-1.42;100.00;99842.78;4211495;34;20457;-69
2022/12/02 12:16:34;;;;;;;24.85;12.60;;;;;;;-1.40;100.00;99817.03;4205953;34;20061;-69
2022/12/02 12:19:21;;;;;;;30.67;12.65;;;;;;;-1.41;100.00;99841.78;4217619;34;20429;-69
2022/12/02 12:21:54;;;;;;;28.02;11.80;;;;;;;-1.33;100.00;99835.75;4236793;33;20542;-69
2022/12/02 12:24:22;;;;;;;31.95;12.20;;;;;;;-1.54;100.00;99804.38;4215236;34;20065;-68
2022/12/02 12:27:17;;;;;;;35.97;11.95;;;;;;;-1.49;100.00;99821.41;4215731;34;20112;-69
2022/12/02 12:29:43;;;;;;;32.35;12.65;;;;;;;-1.66;100.00;99832.81;4212942;34;20362;-69
2022/12/02 12:32:10;;;;;;;19.98;8.38;;;;;;;-1.67;100.00;99836.47;4211834;34;20061;-69
2022/12/02 12:34:36;;;;;;;37.45;12.45;;;;;;;-1.78;100.00;99799.72;4210180;34;20085;-68
2022/12/02 12:37:03;;;;;;;37.17;13.18;;;;;;;-1.50;100.00;99825.06;4194669;34;20067;-68
2022/12/02 12:39:29;;;;;;;25.60;11.63;;;;;;;-1.39;100.00;99831.06;4190409;34;20443;-69
2022/12/02 12:41:56;;;;;;;37.75;11.75;;;;;;;-1.86;100.00;99811.84;4180076;34;20065;-68
2022/12/02 12:44:29;;;;;;;31.42;12.50;;;;;;;-1.95;100.00;99796.91;4181384;34;20415;-68
2022/12/02 12:46:58;;;;;;;28.25;9.55;;;;;;;-1.60;100.00;99826.94;4182408;34;20078;-69
2022/12/02 12:49:24;;;;;;;25.52;10.23;;;;;;;-1.65;100.00;99819.47;4181413;34;20069;-68
2022/12/02 12:51:51;;;;;;;26.30;12.80;;;;;;;-1.71;100.00;99830.66;4180757;34;20378;-68
2022/12/02 12:54:17;;;;;;;27.02;11.23;;;;;;;-1.79;100.00;99816.53;4181678;34;20171;-69
2022/12/02 12:56:44;;;;;;;23.58;11.15;;;;;;;-1.83;100.00;99822.09;4180931;34;20049;-68
2022/12/02 12:59:10;;;;;;;32.55;11.60;;;;;;;-2.04;100.00;99811.00;4182002;34;20485;-68
2022/12/02 13:01:37;;;;;;;27.33;10.38;;;;;;;-2.01;100.00;99813.31;4184213;34;20485;-68
2022/12/02 13:04:04;;;;;;;26.42;11.98;;;;;;;-2.16;100.00;99828.03;4193729;34;20061;-68
2022/12/02 13:06:30;;;;;;;29.90;12.45;;;;;;;-1.76;100.00;99829.44;4195239;34;20460;-68
2022/12/02 13:08:56;;;;;;;29.92;13.45;;;;;;;-1.92;100.00;99825.63;4221118;33;20042;-70
2022/12/02 13:11:23;;;;;;;24.48;9.40;;;;;;;-1.60;100.00;99826.94;4223287;33;20175;-69
2022/12/02 13:13:49;;;;;;;28.48;10.63;;;;;;;-1.69;100.00;99831.31;4222039;33;20437;-68
2022/12/02 13:16:16;;;;;;;38.42;12.35;;;;;;;-1.70;100.00;99829.66;4221443;33;20516;-69
2022/12/02 13:18:43;;;;;;;28.10;12.00;;;;;;;-2.04;100.00;99818.94;4222347;33;20050;-69
2022/12/02 13:21:09;;;;;;;40.85;14.15;;;;;;;-1.81;100.00;99836.97;4223348;33;20088;-69
2022/12/02 13:23:36;;;;;;;24.50;12.75;;;;;;;-2.01;100.00;99842.38;4238598;33;20039;-69
2022/12/02 13:26:02;;;;;;;33.05;11.77;;;;;;;-1.96;100.00;99824.28;4230386;33;20469;-68
2022/12/02 13:28:29;;;;;;;41.15;14.25;;;;;;;-2.10;100.00;99787.84;4227544;33;20104;-70
2022/12/02 13:30:55;;;;;;;37.15;14.18;;;;;;;-1.86;100.00;99840.87;4227389;33;20142;-70
2022/12/02 13:33:21;;;;;;;39.28;13.80;;;;;;;-2.32;100.00;99811.03;4228374;33;20054;-69